Stations météo

réclame
Mon MeteoGroup
Pajares/Valgrande, Espagne (8031): Température de l'air & dewpoint: 12.06.2018 15:00:00 - 18.06.2018 15:00:00 (CEST)Pajares/Valgrande, Espagne (8031): Vitesse du vent & gusts: 12.06.2018 15:00:00 - 18.06.2018 15:00:00 (CEST)Pajares/Valgrande, Espagne (8031): Direction du vent: 12.06.2018 15:00:00 - 18.06.2018 15:00:00 (CEST)Pajares/Valgrande, Espagne (8031): Quantités de précipitations: 12.06.2018 15:00:00 - 18.06.2018 15:00:00 (CEST)
Date & Time tt [°C] td [°C] ff [km/h] ff [knt] fx [km/h] fx [knt] dd rr [mm]
18.06.2018 15:00:00 17,2 9,8 9 5 22 12 NNW 0,0
18.06.2018 14:00:00 16,2 9,2 10 6 20 11 NW -
18.06.2018 13:00:00 15,6 9,9 10 5 21 11 NNW 0,0
18.06.2018 12:00:00 15,0 9,2 10 5 16 9 NW 0,0
18.06.2018 11:00:00 14,0 6,8 8 5 14 7 NW 0,0
18.06.2018 10:00:00 13,6 8,0 8 4 18 10 NW 0,0
18.06.2018 09:00:00 13,3 7,7 9 5 14 8 NW 0,0
18.06.2018 08:00:00 13,6 6,8 6 3 12 6 NW -
18.06.2018 07:00:00 11,0 3,0 1 0 8 4 NW 0,0
18.06.2018 06:00:00 11,3 1,3 0 0 6 3 N 0,0
18.06.2018 05:00:00 9,9 -2,2 4 2 13 7 WSW 0,0
18.06.2018 04:00:00 10,1 0,2 8 4 13 7 SSW 0,0
18.06.2018 03:00:00 10,2 3,2 9 5 12 7 SSW 0,0
18.06.2018 02:00:00 10,2 5,9 7 4 11 6 SSW -
18.06.2018 01:00:00 10,5 7,7 5 3 8 4 SSW 0,0
18.06.2018 00:00:00 10,3 7,0 2 1 8 4 SSW 0,0
17.06.2018 23:00:00 12,0 9,7 4 2 8 4 W 0,0
17.06.2018 22:00:00 12,7 10,3 3 1 8 5 W 0,0
17.06.2018 21:00:00 13,2 10,4 3 2 16 9 NW 0,0
17.06.2018 20:00:00 15,4 10,4 9 5 18 10 NNW -
17.06.2018 19:00:00 15,9 9,6 11 6 19 11 NW 0,0
17.06.2018 18:00:00 16,7 6,8 9 5 20 11 NW 0,0
17.06.2018 17:00:00 17,0 5,0 9 5 20 11 NNW 0,0
17.06.2018 16:00:00 17,3 3,2 7 4 18 10 NW 0,0
17.06.2018 15:00:00 16,5 2,1 8 5 19 10 NW 0,0
17.06.2018 14:00:00 15,8 1,5 9 5 17 9 NW -
17.06.2018 13:00:00 15,0 -2,0 7 4 14 8 NW 0,0
17.06.2018 12:00:00 14,5 -3,9 10 5 19 11 NW 0,0
17.06.2018 11:00:00 14,1 -5,1 8 5 17 9 NW 0,0
17.06.2018 10:00:00 11,3 8,4 1 0 9 5 NE 0,0
17.06.2018 09:00:00 8,5 5,9 1 1 10 5 S 0,0
17.06.2018 08:00:00 11,4 7,0 1 0 7 4 NNW -
17.06.2018 07:00:00 8,3 4,6 1 1 7 4 NW 0,0
17.06.2018 06:00:00 8,0 5,5 1 1 9 5 W 0,0
17.06.2018 05:00:00 7,9 5,3 7 4 10 5 SSW 0,0
17.06.2018 04:00:00 8,5 7,0 4 2 9 5 SW 0,0
17.06.2018 03:00:00 7,7 6,1 0 0 8 4 SSE 0,0
17.06.2018 02:00:00 7,9 5,9 1 1 6 4 SSW -
17.06.2018 01:00:00 8,6 6,7 7 4 9 5 SSW 0,0
17.06.2018 00:00:00 9,7 8,1 3 1 9 5 S 0,0
16.06.2018 23:00:00 9,9 8,5 4 2 8 5 W 0,0
16.06.2018 22:00:00 9,7 8,3 5 3 15 8 NW 0,0
16.06.2018 21:00:00 10,5 8,9 4 2 13 7 NW 0,0
16.06.2018 20:00:00 11,2 8,9 7 4 16 9 NNW -
16.06.2018 19:00:00 12,8 7,7 8 5 22 12 NNW 0,0
16.06.2018 18:00:00 15,1 7,1 9 5 22 12 NW 0,0
16.06.2018 17:00:00 15,4 7,0 10 5 23 13 NW 0,0
16.06.2018 16:00:00 15,7 6,4 9 5 19 10 NW 0,0
16.06.2018 15:00:00 15,3 4,3 11 6 19 10 N 0,0
16.06.2018 14:00:00 15,2 2,7 6 4 16 9 NW -
16.06.2018 13:00:00 14,7 -1,4 6 4 14 8 NW 0,0
16.06.2018 12:00:00 14,4 -5,4 8 4 14 7 NW 0,0
16.06.2018 11:00:00 14,3 -6,0 5 3 12 6 NW 0,0
16.06.2018 10:00:00 13,7 -7,1 4 2 12 6 NNW 0,0
16.06.2018 09:00:00 12,7 -5,7 8 4 16 8 NNW 0,0
16.06.2018 08:00:00 10,1 -5,4 4 2 9 5 NNW -
16.06.2018 07:00:00 6,7 -5,7 3 2 11 6 WSW 0,0
16.06.2018 06:00:00 7,5 -3,9 9 5 15 8 SSW 0,0
16.06.2018 05:00:00 8,0 1,1 7 4 13 7 SSW 0,0
16.06.2018 04:00:00 8,9 4,1 6 3 14 8 SW 0,1
16.06.2018 03:00:00 9,5 3,6 9 5 15 8 SSW 0,0
16.06.2018 02:00:00 9,8 5,0 9 5 13 7 SSW -
16.06.2018 01:00:00 9,5 2,9 7 4 19 11 SSW 0,0
16.06.2018 00:00:00 11,9 2,7 14 7 19 11 S 0,0
15.06.2018 23:00:00 8,0 6,8 3 1 6 4 ESE 0,0
15.06.2018 22:00:00 9,0 7,7 0 0 9 5 N 0,0
15.06.2018 21:00:00 9,5 8,3 6 3 9 5 NNW 0,0
15.06.2018 20:00:00 10,0 8,8 2 1 10 6 WNW -
15.06.2018 19:00:00 10,2 8,9 6 3 12 6 NNW 0,0
15.06.2018 18:00:00 10,4 9,2 6 3 11 6 NW 0,0
15.06.2018 17:00:00 10,8 9,6 6 3 13 7 NW 0,0
15.06.2018 16:00:00 10,7 9,3 5 3 15 8 NW 0,0
15.06.2018 15:00:00 10,7 9,3 8 4 17 9 NW 0,0
15.06.2018 14:00:00 11,4 8,8 8 5 16 9 NNW -
15.06.2018 13:00:00 13,2 9,0 8 4 19 10 NW 0,0
15.06.2018 12:00:00 12,9 8,8 4 2 16 8 NNW 0,0
15.06.2018 11:00:00 12,1 8,3 4 2 10 6 NNW 0,0
15.06.2018 10:00:00 12,2 7,8 5 3 9 5 NNW 0,0
15.06.2018 09:00:00 11,4 7,7 5 3 8 4 NNW 0,0
15.06.2018 08:00:00 11,5 8,7 1 0 6 4 NW -
15.06.2018 07:00:00 9,6 8,0 0 0 8 5 W 0,0
15.06.2018 06:00:00 10,1 8,4 1 1 5 3 NW 0,0
15.06.2018 05:00:00 10,1 8,4 1 0 10 6 W 0,0
15.06.2018 04:00:00 9,4 7,6 3 2 11 6 SSW 0,0
15.06.2018 03:00:00 9,6 7,6 7 4 10 6 SSW 0,0
15.06.2018 02:00:00 9,3 6,8 2 1 7 4 W -
15.06.2018 01:00:00 10,2 5,3 5 3 12 7 SSW 0,0
15.06.2018 00:00:00 10,8 7,0 5 3 14 7 SSW 0,0
14.06.2018 23:00:00 11,1 8,5 8 4 11 6 SSW 0,0
14.06.2018 22:00:00 11,6 8,1 1 0 8 4 W 0,0
14.06.2018 21:00:00 14,1 8,7 4 2 10 6 NW 0,0
14.06.2018 20:00:00 14,9 8,1 5 3 18 10 NW -
14.06.2018 19:00:00 14,9 7,1 12 6 22 12 NW 0,0
14.06.2018 18:00:00 16,0 7,0 8 4 19 10 NNW 0,0
14.06.2018 17:00:00 16,2 6,5 7 4 20 11 NNW 0,0
14.06.2018 16:00:00 16,4 6,2 7 4 19 11 NNW 0,0
14.06.2018 15:00:00 15,8 5,9 7 4 19 10 NNW 0,0
14.06.2018 14:00:00 14,8 3,9 8 5 16 9 NW -
14.06.2018 13:00:00 14,2 3,0 8 5 18 10 WNW 0,0
14.06.2018 12:00:00 13,2 0,6 6 4 13 7 WNW 0,0
14.06.2018 11:00:00 11,9 -2,7 6 4 12 6 NNW 0,0
14.06.2018 10:00:00 11,2 -3,0 6 4 14 8 NW 0,0
14.06.2018 09:00:00 11,0 -2,7 5 3 10 5 NNW 0,0
14.06.2018 08:00:00 9,8 -0,7 4 2 8 4 NW -
14.06.2018 07:00:00 6,2 -1,2 1 1 7 4 NW 0,0
14.06.2018 06:00:00 5,8 -0,5 0 0 3 2 SW 0,0
14.06.2018 05:00:00 5,9 0,9 1 1 5 3 W 0,0
14.06.2018 04:00:00 5,3 1,3 1 0 7 4 WNW 0,0
14.06.2018 03:00:00 4,6 2,1 4 2 10 6 SSW 0,0
14.06.2018 02:00:00 5,4 4,1 5 3 9 5 SSW -
14.06.2018 01:00:00 6,5 5,3 0 0 4 2 NW 0,0
14.06.2018 00:00:00 6,9 5,6 1 0 9 5 N 0,0
13.06.2018 23:00:00 7,4 6,2 4 2 14 8 NW 0,0
13.06.2018 22:00:00 7,7 6,5 6 4 12 6 NW 0,0
13.06.2018 21:00:00 7,9 6,7 5 3 14 8 NW 0,0
13.06.2018 20:00:00 8,3 6,7 5 3 11 6 NW -
13.06.2018 19:00:00 8,7 7,1 6 3 21 11 NW 0,0
13.06.2018 18:00:00 8,9 6,8 7 4 18 10 NW 0,0
13.06.2018 17:00:00 9,1 6,2 9 5 21 11 NW 0,0
13.06.2018 16:00:00 8,8 5,9 9 5 22 12 NW 0,0
13.06.2018 15:00:00 9,4 5,8 13 7 27 15 NW 0,0
13.06.2018 14:00:00 9,0 6,4 12 6 24 13 NW -
13.06.2018 13:00:00 8,9 7,6 10 6 18 10 NW 0,0
13.06.2018 12:00:00 8,0 7,0 9 5 24 13 NW 0,0
13.06.2018 11:00:00 7,5 6,4 9 5 19 10 NNW 0,0
13.06.2018 10:00:00 6,4 5,3 8 4 14 8 NW 0,0
13.06.2018 09:00:00 5,9 4,8 7 4 16 9 NNW 0,0
13.06.2018 08:00:00 5,5 4,5 9 5 15 8 NW -
13.06.2018 07:00:00 5,5 4,5 6 4 13 7 NW 0,0
13.06.2018 06:00:00 5,7 4,6 5 3 16 9 NW 0,0
13.06.2018 05:00:00 5,7 4,6 8 5 25 13 NNW 0,0
13.06.2018 04:00:00 5,9 4,8 13 7 27 15 NW 0,0
13.06.2018 03:00:00 5,9 4,8 14 7 29 16 NW 0,0
13.06.2018 02:00:00 6,1 5,0 12 7 25 13 NW -
13.06.2018 01:00:00 6,1 5,0 9 5 21 11 NW 0,0
13.06.2018 00:00:00 6,4 5,3 10 6 31 17 NW 0,0
12.06.2018 23:00:00 6,7 5,6 12 6 32 17 NNW 0,1
12.06.2018 22:00:00 7,2 6,1 17 9 35 19 NW 0,0
12.06.2018 21:00:00 7,6 6,5 16 9 35 19 NW 0,0
12.06.2018 20:00:00 8,0 7,0 14 7 29 16 NW -
12.06.2018 19:00:00 7,9 6,8 10 5 30 16 NNW 0,0
12.06.2018 18:00:00 8,2 7,1 12 6 29 15 NNW 0,0
12.06.2018 17:00:00 8,6 7,6 12 6 26 14 NW 0,0
12.06.2018 16:00:00 8,7 7,6 9 5 21 12 NW 0,0
12.06.2018 15:00:00 8,3 7,3 9 5 22 12 NW 0,0

tt = Température de l'air
td = dewpoint
ff = Vitesse du vent
fx = gusts
dd = Direction du vent
rr = Quantités de précipitations

stations d'obs. à proximité